sensor_id;sensor_type;location;lat;lon;timestamp;P1;durP1;ratioP1;P2;durP2;ratioP2
60919;SDS011;59039;52.108;19.942;2022-10-16T00:01:22;15.00;;;10.50;;
60919;SDS011;59039;52.108;19.942;2022-10-16T00:03:48;17.00;;;11.20;;
60919;SDS011;59039;52.108;19.942;2022-10-16T00:06:15;18.40;;;10.20;;
60919;SDS011;59039;52.108;19.942;2022-10-16T00:08:42;14.60;;;10.00;;
60919;SDS011;59039;52.108;19.942;2022-10-16T00:11:09;14.70;;;10.40;;
60919;SDS011;59039;52.108;19.942;2022-10-16T00:13:37;15.40;;;10.90;;
60919;SDS011;59039;52.108;19.942;2022-10-16T00:16:04;16.70;;;9.90;;
60919;SDS011;59039;52.108;19.942;2022-10-16T00:18:30;15.10;;;10.00;;
60919;SDS011;59039;52.108;19.942;2022-10-16T00:21:00;14.30;;;10.30;;
60919;SDS011;59039;52.108;19.942;2022-10-16T00:23:30;18.80;;;10.80;;
60919;SDS011;59039;52.108;19.942;2022-10-16T00:25:56;18.00;;;10.20;;
60919;SDS011;59039;52.108;19.942;2022-10-16T00:28:23;13.30;;;9.40;;
60919;SDS011;59039;52.108;19.942;2022-10-16T00:30:49;14.30;;;10.40;;
60919;SDS011;59039;52.108;19.942;2022-10-16T00:33:14;15.60;;;10.90;;
60919;SDS011;59039;52.108;19.942;2022-10-16T00:35:39;15.30;;;11.20;;
60919;SDS011;59039;52.108;19.942;2022-10-16T00:38:05;17.50;;;11.00;;
60919;SDS011;59039;52.108;19.942;2022-10-16T00:40:30;15.80;;;10.40;;
60919;SDS011;59039;52.108;19.942;2022-10-16T00:42:55;15.80;;;10.30;;
60919;SDS011;59039;52.108;19.942;2022-10-16T00:45:20;14.30;;;10.10;;
60919;SDS011;59039;52.108;19.942;2022-10-16T00:47:45;15.80;;;10.70;;
60919;SDS011;59039;52.108;19.942;2022-10-16T00:50:22;16.40;;;11.40;;
60919;SDS011;59039;52.108;19.942;2022-10-16T00:52:53;16.70;;;11.30;;
60919;SDS011;59039;52.108;19.942;2022-10-16T00:55:19;16.30;;;10.50;;
60919;SDS011;59039;52.108;19.942;2022-10-16T00:57:45;14.70;;;9.70;;
60919;SDS011;59039;52.108;19.942;2022-10-16T01:00:13;16.00;;;11.00;;
60919;SDS011;59039;52.108;19.942;2022-10-16T01:02:41;15.60;;;10.40;;
60919;SDS011;59039;52.108;19.942;2022-10-16T01:05:06;17.80;;;10.50;;
60919;SDS011;59039;52.108;19.942;2022-10-16T01:07:49;15.20;;;10.50;;
60919;SDS011;59039;52.108;19.942;2022-10-16T01:10:40;17.00;;;10.80;;
60919;SDS011;59039;52.108;19.942;2022-10-16T01:13:36;17.10;;;11.30;;
60919;SDS011;59039;52.108;19.942;2022-10-16T01:19:08;14.10;;;10.70;;
60919;SDS011;59039;52.108;19.942;2022-10-16T01:21:40;15.10;;;10.60;;
60919;SDS011;59039;52.108;19.942;2022-10-16T01:31:57;15.50;;;11.00;;
60919;SDS011;59039;52.108;19.942;2022-10-16T01:34:32;17.00;;;11.60;;
60919;SDS011;59039;52.108;19.942;2022-10-16T01:37:05;18.50;;;12.50;;
60919;SDS011;59039;52.108;19.942;2022-10-16T01:39:40;21.50;;;11.70;;
60919;SDS011;59039;52.108;19.942;2022-10-16T01:44:47;18.30;;;11.70;;
60919;SDS011;59039;52.108;19.942;2022-10-16T01:47:15;20.10;;;13.80;;
60919;SDS011;59039;52.108;19.942;2022-10-16T01:49:44;18.60;;;12.70;;
60919;SDS011;59039;52.108;19.942;2022-10-16T01:52:12;17.50;;;11.90;;
60919;SDS011;59039;52.108;19.942;2022-10-16T01:54:42;18.20;;;11.90;;
60919;SDS011;59039;52.108;19.942;2022-10-16T01:57:10;16.70;;;11.60;;
60919;SDS011;59039;52.108;19.942;2022-10-16T01:59:39;25.10;;;12.00;;
60919;SDS011;59039;52.108;19.942;2022-10-16T02:02:09;21.80;;;12.20;;
60919;SDS011;59039;52.108;19.942;2022-10-16T02:04:42;20.80;;;12.30;;
60919;SDS011;59039;52.108;19.942;2022-10-16T02:07:11;21.80;;;12.50;;
60919;SDS011;59039;52.108;19.942;2022-10-16T02:09:37;19.90;;;12.30;;
60919;SDS011;59039;52.108;19.942;2022-10-16T02:12:05;19.50;;;11.80;;
60919;SDS011;59039;52.108;19.942;2022-10-16T02:14:38;19.40;;;12.20;;
60919;SDS011;59039;52.108;19.942;2022-10-16T02:17:11;20.00;;;13.20;;
60919;SDS011;59039;52.108;19.942;2022-10-16T02:19:38;23.10;;;14.40;;
60919;SDS011;59039;52.108;19.942;2022-10-16T02:22:04;23.10;;;13.90;;
60919;SDS011;59039;52.108;19.942;2022-10-16T02:27:47;27.00;;;15.00;;
60919;SDS011;59039;52.108;19.942;2022-10-16T02:32:53;25.10;;;14.30;;
60919;SDS011;59039;52.108;19.942;2022-10-16T02:35:20;22.90;;;13.30;;
60919;SDS011;59039;52.108;19.942;2022-10-16T02:37:48;22.80;;;14.40;;
60919;SDS011;59039;52.108;19.942;2022-10-16T02:40:15;18.50;;;11.80;;
60919;SDS011;59039;52.108;19.942;2022-10-16T02:42:41;22.70;;;12.90;;
60919;SDS011;59039;52.108;19.942;2022-10-16T02:45:07;25.90;;;14.30;;
60919;SDS011;59039;52.108;19.942;2022-10-16T02:47:34;19.30;;;13.10;;
60919;SDS011;59039;52.108;19.942;2022-10-16T02:49:59;21.10;;;12.90;;
60919;SDS011;59039;52.108;19.942;2022-10-16T02:52:24;21.80;;;13.10;;
60919;SDS011;59039;52.108;19.942;2022-10-16T02:54:50;23.60;;;14.00;;
60919;SDS011;59039;52.108;19.942;2022-10-16T02:57:15;22.80;;;14.10;;
60919;SDS011;59039;52.108;19.942;2022-10-16T02:59:40;22.20;;;14.00;;
60919;SDS011;59039;52.108;19.942;2022-10-16T03:02:05;18.90;;;12.60;;
60919;SDS011;59039;52.108;19.942;2022-10-16T03:04:31;20.10;;;12.70;;
60919;SDS011;59039;52.108;19.942;2022-10-16T03:06:56;21.20;;;13.20;;
60919;SDS011;59039;52.108;19.942;2022-10-16T03:09:21;24.80;;;15.70;;
60919;SDS011;59039;52.108;19.942;2022-10-16T03:11:46;22.10;;;14.30;;
60919;SDS011;59039;52.108;19.942;2022-10-16T03:14:11;22.50;;;15.10;;
60919;SDS011;59039;52.108;19.942;2022-10-16T03:16:37;24.20;;;15.30;;
60919;SDS011;59039;52.108;19.942;2022-10-16T03:19:02;26.90;;;16.10;;
60919;SDS011;59039;52.108;19.942;2022-10-16T03:21:27;21.80;;;14.10;;
60919;SDS011;59039;52.108;19.942;2022-10-16T03:23:52;25.40;;;15.70;;
60919;SDS011;59039;52.108;19.942;2022-10-16T03:26:17;23.10;;;15.00;;
60919;SDS011;59039;52.108;19.942;2022-10-16T03:28:43;25.80;;;16.30;;
60919;SDS011;59039;52.108;19.942;2022-10-16T03:31:08;22.10;;;14.00;;
60919;SDS011;59039;52.108;19.942;2022-10-16T03:33:33;27.70;;;16.20;;
60919;SDS011;59039;52.108;19.942;2022-10-16T03:35:58;24.70;;;14.40;;
60919;SDS011;59039;52.108;19.942;2022-10-16T03:38:23;25.90;;;15.30;;
60919;SDS011;59039;52.108;19.942;2022-10-16T03:40:49;20.70;;;13.70;;
60919;SDS011;59039;52.108;19.942;2022-10-16T03:43:14;23.20;;;13.90;;
60919;SDS011;59039;52.108;19.942;2022-10-16T03:45:39;25.80;;;13.90;;
60919;SDS011;59039;52.108;19.942;2022-10-16T03:48:04;24.00;;;14.40;;
60919;SDS011;59039;52.108;19.942;2022-10-16T03:50:29;21.60;;;13.50;;
60919;SDS011;59039;52.108;19.942;2022-10-16T03:52:55;22.40;;;13.50;;
60919;SDS011;59039;52.108;19.942;2022-10-16T03:55:20;25.70;;;15.80;;
60919;SDS011;59039;52.108;19.942;2022-10-16T03:57:45;23.00;;;14.60;;
60919;SDS011;59039;52.108;19.942;2022-10-16T04:00:11;22.40;;;14.60;;
60919;SDS011;59039;52.108;19.942;2022-10-16T04:02:37;25.50;;;15.90;;
60919;SDS011;59039;52.108;19.942;2022-10-16T04:05:03;27.20;;;15.40;;
60919;SDS011;59039;52.108;19.942;2022-10-16T04:07:28;23.40;;;15.10;;
60919;SDS011;59039;52.108;19.942;2022-10-16T04:09:54;22.90;;;14.40;;
60919;SDS011;59039;52.108;19.942;2022-10-16T04:12:19;23.50;;;15.20;;
60919;SDS011;59039;52.108;19.942;2022-10-16T04:14:44;22.80;;;14.70;;
60919;SDS011;59039;52.108;19.942;2022-10-16T04:17:09;19.70;;;13.80;;
60919;SDS011;59039;52.108;19.942;2022-10-16T04:19:35;21.80;;;14.70;;
60919;SDS011;59039;52.108;19.942;2022-10-16T04:22:00;21.80;;;13.40;;
60919;SDS011;59039;52.108;19.942;2022-10-16T04:24:25;22.20;;;14.90;;
60919;SDS011;59039;52.108;19.942;2022-10-16T04:26:51;23.50;;;14.70;;
60919;SDS011;59039;52.108;19.942;2022-10-16T04:29:16;22.90;;;14.00;;
60919;SDS011;59039;52.108;19.942;2022-10-16T04:31:41;21.90;;;15.40;;
60919;SDS011;59039;52.108;19.942;2022-10-16T04:34:06;20.10;;;14.70;;
60919;SDS011;59039;52.108;19.942;2022-10-16T04:36:31;26.90;;;16.20;;
60919;SDS011;59039;52.108;19.942;2022-10-16T04:38:57;23.30;;;15.40;;
60919;SDS011;59039;52.108;19.942;2022-10-16T04:41:22;21.00;;;14.90;;
60919;SDS011;59039;52.108;19.942;2022-10-16T04:43:47;22.70;;;15.00;;
60919;SDS011;59039;52.108;19.942;2022-10-16T04:46:12;23.90;;;15.90;;
60919;SDS011;59039;52.108;19.942;2022-10-16T04:48:37;27.30;;;18.10;;
60919;SDS011;59039;52.108;19.942;2022-10-16T04:51:03;24.40;;;16.30;;
60919;SDS011;59039;52.108;19.942;2022-10-16T04:53:28;21.10;;;15.60;;
60919;SDS011;59039;52.108;19.942;2022-10-16T04:55:53;26.70;;;16.90;;
60919;SDS011;59039;52.108;19.942;2022-10-16T04:58:18;24.20;;;16.60;;
60919;SDS011;59039;52.108;19.942;2022-10-16T05:00:44;25.40;;;16.60;;
60919;SDS011;59039;52.108;19.942;2022-10-16T05:03:09;26.50;;;17.80;;
60919;SDS011;59039;52.108;19.942;2022-10-16T05:05:35;29.30;;;16.90;;
60919;SDS011;59039;52.108;19.942;2022-10-16T05:08:01;22.90;;;15.20;;
60919;SDS011;59039;52.108;19.942;2022-10-16T05:10:27;22.80;;;15.80;;
60919;SDS011;59039;52.108;19.942;2022-10-16T05:12:52;23.10;;;15.80;;
60919;SDS011;59039;52.108;19.942;2022-10-16T05:15:17;21.40;;;14.80;;
60919;SDS011;59039;52.108;19.942;2022-10-16T05:17:43;24.80;;;15.90;;
60919;SDS011;59039;52.108;19.942;2022-10-16T05:20:08;22.70;;;15.40;;
60919;SDS011;59039;52.108;19.942;2022-10-16T05:22:33;22.90;;;15.70;;
60919;SDS011;59039;52.108;19.942;2022-10-16T05:24:58;22.70;;;15.80;;
60919;SDS011;59039;52.108;19.942;2022-10-16T05:27:24;24.40;;;15.10;;
60919;SDS011;59039;52.108;19.942;2022-10-16T05:29:49;23.90;;;15.00;;
60919;SDS011;59039;52.108;19.942;2022-10-16T05:32:14;23.90;;;15.20;;
60919;SDS011;59039;52.108;19.942;2022-10-16T05:34:41;23.40;;;14.00;;
60919;SDS011;59039;52.108;19.942;2022-10-16T05:37:07;20.50;;;13.60;;
60919;SDS011;59039;52.108;19.942;2022-10-16T05:39:32;25.20;;;15.70;;
60919;SDS011;59039;52.108;19.942;2022-10-16T05:41:57;20.40;;;15.20;;
60919;SDS011;59039;52.108;19.942;2022-10-16T05:44:22;22.60;;;14.90;;
60919;SDS011;59039;52.108;19.942;2022-10-16T05:46:47;23.90;;;15.10;;
60919;SDS011;59039;52.108;19.942;2022-10-16T05:49:13;25.30;;;15.40;;
60919;SDS011;59039;52.108;19.942;2022-10-16T05:51:38;22.90;;;14.60;;
60919;SDS011;59039;52.108;19.942;2022-10-16T05:54:03;27.10;;;16.60;;
60919;SDS011;59039;52.108;19.942;2022-10-16T05:56:28;26.40;;;16.80;;
60919;SDS011;59039;52.108;19.942;2022-10-16T05:58:54;36.20;;;20.10;;
60919;SDS011;59039;52.108;19.942;2022-10-16T06:01:19;39.70;;;19.00;;
60919;SDS011;59039;52.108;19.942;2022-10-16T06:03:44;46.90;;;25.30;;
60919;SDS011;59039;52.108;19.942;2022-10-16T06:08:36;38.80;;;22.50;;
60919;SDS011;59039;52.108;19.942;2022-10-16T06:11:02;31.10;;;17.60;;
60919;SDS011;59039;52.108;19.942;2022-10-16T06:13:29;31.30;;;18.70;;
60919;SDS011;59039;52.108;19.942;2022-10-16T06:15:56;46.20;;;23.80;;
60919;SDS011;59039;52.108;19.942;2022-10-16T06:18:22;32.70;;;17.70;;
60919;SDS011;59039;52.108;19.942;2022-10-16T06:20:47;22.30;;;15.30;;
60919;SDS011;59039;52.108;19.942;2022-10-16T06:23:12;24.30;;;15.60;;
60919;SDS011;59039;52.108;19.942;2022-10-16T06:25:38;25.40;;;15.80;;
60919;SDS011;59039;52.108;19.942;2022-10-16T06:28:03;23.40;;;15.00;;
60919;SDS011;59039;52.108;19.942;2022-10-16T06:30:28;21.60;;;14.20;;
60919;SDS011;59039;52.108;19.942;2022-10-16T06:32:53;22.30;;;15.00;;
60919;SDS011;59039;52.108;19.942;2022-10-16T06:35:18;21.40;;;13.90;;
60919;SDS011;59039;52.108;19.942;2022-10-16T06:37:44;21.10;;;13.80;;
60919;SDS011;59039;52.108;19.942;2022-10-16T06:40:09;20.40;;;13.00;;
60919;SDS011;59039;52.108;19.942;2022-10-16T06:42:34;21.80;;;15.20;;
60919;SDS011;59039;52.108;19.942;2022-10-16T06:44:59;21.90;;;14.80;;
60919;SDS011;59039;52.108;19.942;2022-10-16T06:47:24;23.80;;;16.20;;
60919;SDS011;59039;52.108;19.942;2022-10-16T06:49:49;25.60;;;16.60;;
60919;SDS011;59039;52.108;19.942;2022-10-16T06:52:15;23.60;;;16.00;;
60919;SDS011;59039;52.108;19.942;2022-10-16T06:54:40;22.40;;;15.20;;
60919;SDS011;59039;52.108;19.942;2022-10-16T06:57:05;21.60;;;14.50;;
60919;SDS011;59039;52.108;19.942;2022-10-16T06:59:30;22.70;;;14.10;;
60919;SDS011;59039;52.108;19.942;2022-10-16T07:01:55;21.00;;;13.90;;
60919;SDS011;59039;52.108;19.942;2022-10-16T07:04:20;22.60;;;16.20;;
60919;SDS011;59039;52.108;19.942;2022-10-16T07:06:46;22.30;;;14.30;;
60919;SDS011;59039;52.108;19.942;2022-10-16T07:09:11;23.70;;;16.40;;
60919;SDS011;59039;52.108;19.942;2022-10-16T07:11:38;21.20;;;14.80;;
60919;SDS011;59039;52.108;19.942;2022-10-16T07:14:04;25.90;;;17.20;;
60919;SDS011;59039;52.108;19.942;2022-10-16T07:16:30;26.00;;;16.10;;
60919;SDS011;59039;52.108;19.942;2022-10-16T07:18:58;27.60;;;17.20;;
60919;SDS011;59039;52.108;19.942;2022-10-16T07:21:28;27.50;;;16.00;;
60919;SDS011;59039;52.108;19.942;2022-10-16T07:23:56;22.70;;;15.60;;
60919;SDS011;59039;52.108;19.942;2022-10-16T07:26:25;21.90;;;15.90;;
60919;SDS011;59039;52.108;19.942;2022-10-16T07:28:52;24.70;;;15.50;;
60919;SDS011;59039;52.108;19.942;2022-10-16T07:31:17;27.80;;;16.90;;
60919;SDS011;59039;52.108;19.942;2022-10-16T07:33:44;21.30;;;13.80;;
60919;SDS011;59039;52.108;19.942;2022-10-16T07:36:11;22.80;;;14.70;;
60919;SDS011;59039;52.108;19.942;2022-10-16T07:38:37;20.00;;;13.10;;
60919;SDS011;59039;52.108;19.942;2022-10-16T07:41:04;20.10;;;13.10;;
60919;SDS011;59039;52.108;19.942;2022-10-16T07:43:31;18.50;;;13.30;;
60919;SDS011;59039;52.108;19.942;2022-10-16T07:45:57;24.00;;;14.90;;
60919;SDS011;59039;52.108;19.942;2022-10-16T07:48:22;23.90;;;14.20;;
60919;SDS011;59039;52.108;19.942;2022-10-16T07:50:49;20.20;;;13.90;;
60919;SDS011;59039;52.108;19.942;2022-10-16T07:53:14;22.20;;;14.20;;
60919;SDS011;59039;52.108;19.942;2022-10-16T07:55:40;25.20;;;16.00;;
60919;SDS011;59039;52.108;19.942;2022-10-16T07:58:05;20.70;;;14.40;;
60919;SDS011;59039;52.108;19.942;2022-10-16T08:00:31;21.60;;;14.10;;
60919;SDS011;59039;52.108;19.942;2022-10-16T08:02:58;20.60;;;13.20;;
60919;SDS011;59039;52.108;19.942;2022-10-16T08:05:23;20.40;;;13.30;;
60919;SDS011;59039;52.108;19.942;2022-10-16T08:07:49;22.80;;;14.50;;
60919;SDS011;59039;52.108;19.942;2022-10-16T08:10:18;20.20;;;14.40;;
60919;SDS011;59039;52.108;19.942;2022-10-16T08:12:45;20.50;;;14.00;;
60919;SDS011;59039;52.108;19.942;2022-10-16T08:15:10;18.80;;;13.10;;
60919;SDS011;59039;52.108;19.942;2022-10-16T08:17:36;19.30;;;13.50;;
60919;SDS011;59039;52.108;19.942;2022-10-16T08:20:01;19.90;;;13.60;;
60919;SDS011;59039;52.108;19.942;2022-10-16T08:22:26;21.50;;;13.90;;
60919;SDS011;59039;52.108;19.942;2022-10-16T08:24:52;20.30;;;13.60;;
60919;SDS011;59039;52.108;19.942;2022-10-16T08:27:17;19.00;;;13.70;;
60919;SDS011;59039;52.108;19.942;2022-10-16T08:29:42;20.90;;;12.90;;
60919;SDS011;59039;52.108;19.942;2022-10-16T08:32:08;19.40;;;12.50;;
60919;SDS011;59039;52.108;19.942;2022-10-16T08:34:33;19.00;;;12.60;;
60919;SDS011;59039;52.108;19.942;2022-10-16T08:36:58;18.40;;;12.90;;
60919;SDS011;59039;52.108;19.942;2022-10-16T08:39:23;18.60;;;13.10;;
60919;SDS011;59039;52.108;19.942;2022-10-16T08:41:54;21.20;;;13.60;;
60919;SDS011;59039;52.108;19.942;2022-10-16T08:47:49;18.20;;;13.00;;
60919;SDS011;59039;52.108;19.942;2022-10-16T08:50:28;21.30;;;13.10;;
60919;SDS011;59039;52.108;19.942;2022-10-16T08:52:56;20.50;;;13.80;;
60919;SDS011;59039;52.108;19.942;2022-10-16T08:55:29;22.10;;;13.80;;
60919;SDS011;59039;52.108;19.942;2022-10-16T08:58:01;18.10;;;13.50;;
60919;SDS011;59039;52.108;19.942;2022-10-16T09:03:03;25.20;;;15.70;;
60919;SDS011;59039;52.108;19.942;2022-10-16T09:11:55;22.90;;;14.70;;
60919;SDS011;59039;52.108;19.942;2022-10-16T09:14:46;17.50;;;13.70;;
60919;SDS011;59039;52.108;19.942;2022-10-16T09:22:48;20.80;;;15.30;;
60919;SDS011;59039;52.108;19.942;2022-10-16T09:25:16;21.90;;;16.00;;
60919;SDS011;59039;52.108;19.942;2022-10-16T09:27:47;24.10;;;17.00;;
60919;SDS011;59039;52.108;19.942;2022-10-16T09:30:17;25.70;;;17.10;;
60919;SDS011;59039;52.108;19.942;2022-10-16T09:32:44;25.20;;;17.70;;
60919;SDS011;59039;52.108;19.942;2022-10-16T09:35:15;21.10;;;14.00;;
60919;SDS011;59039;52.108;19.942;2022-10-16T09:37:43;21.80;;;15.10;;
60919;SDS011;59039;52.108;19.942;2022-10-16T09:40:24;24.40;;;14.80;;
60919;SDS011;59039;52.108;19.942;2022-10-16T09:42:53;21.90;;;15.10;;
60919;SDS011;59039;52.108;19.942;2022-10-16T09:45:31;22.00;;;14.90;;
60919;SDS011;59039;52.108;19.942;2022-10-16T09:47:56;24.90;;;16.60;;
60919;SDS011;59039;52.108;19.942;2022-10-16T09:50:23;22.70;;;14.70;;
60919;SDS011;59039;52.108;19.942;2022-10-16T09:52:51;22.60;;;13.90;;
60919;SDS011;59039;52.108;19.942;2022-10-16T09:55:27;21.50;;;13.80;;
60919;SDS011;59039;52.108;19.942;2022-10-16T09:57:53;28.10;;;15.10;;
60919;SDS011;59039;52.108;19.942;2022-10-16T10:00:20;22.90;;;14.40;;
60919;SDS011;59039;52.108;19.942;2022-10-16T10:02:47;21.50;;;13.80;;
60919;SDS011;59039;52.108;19.942;2022-10-16T10:07:56;23.70;;;13.30;;
60919;SDS011;59039;52.108;19.942;2022-10-16T10:10:26;23.70;;;13.90;;
60919;SDS011;59039;52.108;19.942;2022-10-16T10:12:54;20.50;;;13.90;;
60919;SDS011;59039;52.108;19.942;2022-10-16T10:15:20;17.90;;;13.30;;
60919;SDS011;59039;52.108;19.942;2022-10-16T10:17:47;19.70;;;14.00;;
60919;SDS011;59039;52.108;19.942;2022-10-16T10:20:28;19.50;;;12.70;;
60919;SDS011;59039;52.108;19.942;2022-10-16T10:22:55;21.10;;;13.30;;
60919;SDS011;59039;52.108;19.942;2022-10-16T10:31:03;15.40;;;11.50;;
60919;SDS011;59039;52.108;19.942;2022-10-16T10:38:38;20.10;;;12.70;;
60919;SDS011;59039;52.108;19.942;2022-10-16T10:52:13;19.00;;;10.50;;
60919;SDS011;59039;52.108;19.942;2022-10-16T10:54:51;19.30;;;11.00;;
60919;SDS011;59039;52.108;19.942;2022-10-16T10:57:27;14.50;;;10.20;;
60919;SDS011;59039;52.108;19.942;2022-10-16T11:03:07;18.50;;;11.80;;
60919;SDS011;59039;52.108;19.942;2022-10-16T11:06:05;14.40;;;10.00;;
60919;SDS011;59039;52.108;19.942;2022-10-16T11:08:43;12.70;;;9.70;;
60919;SDS011;59039;52.108;19.942;2022-10-16T11:11:29;12.10;;;9.50;;
60919;SDS011;59039;52.108;19.942;2022-10-16T11:14:00;13.60;;;9.70;;
60919;SDS011;59039;52.108;19.942;2022-10-16T11:16:40;11.80;;;9.10;;
60919;SDS011;59039;52.108;19.942;2022-10-16T11:27:39;12.50;;;8.90;;
60919;SDS011;59039;52.108;19.942;2022-10-16T11:30:13;14.90;;;10.40;;
60919;SDS011;59039;52.108;19.942;2022-10-16T11:32:54;14.70;;;9.50;;
60919;SDS011;59039;52.108;19.942;2022-10-16T11:38:13;13.30;;;9.40;;
60919;SDS011;59039;52.108;19.942;2022-10-16T11:40:51;14.00;;;10.40;;
60919;SDS011;59039;52.108;19.942;2022-10-16T11:43:22;20.40;;;12.00;;
60919;SDS011;59039;52.108;19.942;2022-10-16T11:45:54;19.20;;;12.20;;
60919;SDS011;59039;52.108;19.942;2022-10-16T11:48:24;18.40;;;10.90;;
60919;SDS011;59039;52.108;19.942;2022-10-16T11:53:51;15.20;;;9.80;;
60919;SDS011;59039;52.108;19.942;2022-10-16T11:56:18;13.60;;;9.00;;
60919;SDS011;59039;52.108;19.942;2022-10-16T11:58:56;14.20;;;10.10;;
60919;SDS011;59039;52.108;19.942;2022-10-16T12:04:30;16.40;;;11.00;;
60919;SDS011;59039;52.108;19.942;2022-10-16T12:09:25;14.80;;;10.40;;
60919;SDS011;59039;52.108;19.942;2022-10-16T12:11:53;13.50;;;9.50;;
60919;SDS011;59039;52.108;19.942;2022-10-16T12:14:21;12.10;;;9.10;;
60919;SDS011;59039;52.108;19.942;2022-10-16T12:16:54;12.80;;;9.20;;
60919;SDS011;59039;52.108;19.942;2022-10-16T12:19:26;12.20;;;9.50;;
60919;SDS011;59039;52.108;19.942;2022-10-16T12:21:54;13.60;;;10.30;;
60919;SDS011;59039;52.108;19.942;2022-10-16T12:26:56;14.60;;;9.30;;
60919;SDS011;59039;52.108;19.942;2022-10-16T12:29:38;14.30;;;9.70;;
60919;SDS011;59039;52.108;19.942;2022-10-16T12:32:06;14.80;;;9.10;;
60919;SDS011;59039;52.108;19.942;2022-10-16T12:34:48;13.70;;;9.40;;
60919;SDS011;59039;52.108;19.942;2022-10-16T12:37:20;12.00;;;9.00;;
60919;SDS011;59039;52.108;19.942;2022-10-16T12:39:49;14.10;;;10.10;;
60919;SDS011;59039;52.108;19.942;2022-10-16T12:42:20;11.70;;;8.60;;
60919;SDS011;59039;52.108;19.942;2022-10-16T12:44:57;14.40;;;9.60;;
60919;SDS011;59039;52.108;19.942;2022-10-16T12:49:56;15.80;;;10.30;;
60919;SDS011;59039;52.108;19.942;2022-10-16T12:52:36;13.60;;;9.40;;
60919;SDS011;59039;52.108;19.942;2022-10-16T12:55:04;14.40;;;9.60;;
60919;SDS011;59039;52.108;19.942;2022-10-16T12:57:44;14.20;;;7.90;;
60919;SDS011;59039;52.108;19.942;2022-10-16T13:08:38;12.30;;;8.60;;
60919;SDS011;59039;52.108;19.942;2022-10-16T13:22:46;14.90;;;9.70;;
60919;SDS011;59039;52.108;19.942;2022-10-16T13:25:24;14.20;;;10.10;;
60919;SDS011;59039;52.108;19.942;2022-10-16T13:28:12;14.60;;;10.00;;
60919;SDS011;59039;52.108;19.942;2022-10-16T13:30:39;16.00;;;10.70;;
60919;SDS011;59039;52.108;19.942;2022-10-16T13:35:34;11.40;;;8.60;;
60919;SDS011;59039;52.108;19.942;2022-10-16T13:38:12;12.90;;;9.00;;
60919;SDS011;59039;52.108;19.942;2022-10-16T13:40:47;12.30;;;8.70;;
60919;SDS011;59039;52.108;19.942;2022-10-16T13:43:27;13.40;;;9.80;;
60919;SDS011;59039;52.108;19.942;2022-10-16T13:45:59;12.40;;;9.20;;
60919;SDS011;59039;52.108;19.942;2022-10-16T13:48:29;12.60;;;8.50;;
60919;SDS011;59039;52.108;19.942;2022-10-16T13:53:37;15.20;;;10.20;;
60919;SDS011;59039;52.108;19.942;2022-10-16T13:56:03;11.20;;;8.30;;
60919;SDS011;59039;52.108;19.942;2022-10-16T13:58:31;13.30;;;9.40;;
60919;SDS011;59039;52.108;19.942;2022-10-16T14:00:58;15.10;;;10.10;;
60919;SDS011;59039;52.108;19.942;2022-10-16T14:03:26;12.30;;;8.20;;
60919;SDS011;59039;52.108;19.942;2022-10-16T14:05:53;12.00;;;8.10;;
60919;SDS011;59039;52.108;19.942;2022-10-16T14:08:26;13.10;;;8.00;;
60919;SDS011;59039;52.108;19.942;2022-10-16T14:10:55;10.70;;;7.00;;
60919;SDS011;59039;52.108;19.942;2022-10-16T14:13:28;12.90;;;7.70;;
60919;SDS011;59039;52.108;19.942;2022-10-16T14:16:09;12.40;;;8.30;;
60919;SDS011;59039;52.108;19.942;2022-10-16T14:18:40;10.90;;;7.20;;
60919;SDS011;59039;52.108;19.942;2022-10-16T14:21:05;11.40;;;7.40;;
60919;SDS011;59039;52.108;19.942;2022-10-16T14:23:36;10.60;;;7.10;;
60919;SDS011;59039;52.108;19.942;2022-10-16T14:28:34;9.90;;;7.20;;
60919;SDS011;59039;52.108;19.942;2022-10-16T14:31:00;11.60;;;7.20;;
60919;SDS011;59039;52.108;19.942;2022-10-16T14:36:03;13.30;;;8.10;;
60919;SDS011;59039;52.108;19.942;2022-10-16T14:38:31;16.50;;;9.50;;
60919;SDS011;59039;52.108;19.942;2022-10-16T14:40:58;14.90;;;9.70;;
60919;SDS011;59039;52.108;19.942;2022-10-16T14:43:28;15.00;;;9.90;;
60919;SDS011;59039;52.108;19.942;2022-10-16T14:45:59;14.40;;;9.60;;
60919;SDS011;59039;52.108;19.942;2022-10-16T14:48:26;14.00;;;9.30;;
60919;SDS011;59039;52.108;19.942;2022-10-16T14:50:51;16.80;;;9.60;;
60919;SDS011;59039;52.108;19.942;2022-10-16T14:53:16;14.20;;;9.50;;
60919;SDS011;59039;52.108;19.942;2022-10-16T14:55:42;14.00;;;10.30;;
60919;SDS011;59039;52.108;19.942;2022-10-16T14:58:10;13.70;;;9.80;;
60919;SDS011;59039;52.108;19.942;2022-10-16T15:00:41;16.80;;;10.10;;
60919;SDS011;59039;52.108;19.942;2022-10-16T15:03:06;14.20;;;9.00;;
60919;SDS011;59039;52.108;19.942;2022-10-16T15:05:33;13.60;;;10.00;;
60919;SDS011;59039;52.108;19.942;2022-10-16T15:07:58;16.60;;;10.00;;
60919;SDS011;59039;52.108;19.942;2022-10-16T15:10:24;16.00;;;9.90;;
60919;SDS011;59039;52.108;19.942;2022-10-16T15:12:51;15.20;;;10.40;;
60919;SDS011;59039;52.108;19.942;2022-10-16T15:17:48;16.70;;;10.60;;
60919;SDS011;59039;52.108;19.942;2022-10-16T15:20:20;17.20;;;10.90;;
60919;SDS011;59039;52.108;19.942;2022-10-16T15:22:45;16.90;;;10.70;;
60919;SDS011;59039;52.108;19.942;2022-10-16T15:25:30;18.60;;;12.70;;
60919;SDS011;59039;52.108;19.942;2022-10-16T15:28:04;20.90;;;13.60;;
60919;SDS011;59039;52.108;19.942;2022-10-16T15:30:29;20.30;;;13.60;;
60919;SDS011;59039;52.108;19.942;2022-10-16T15:32:55;21.30;;;15.50;;
60919;SDS011;59039;52.108;19.942;2022-10-16T15:35:20;23.50;;;16.90;;
60919;SDS011;59039;52.108;19.942;2022-10-16T15:37:47;25.00;;;17.50;;
60919;SDS011;59039;52.108;19.942;2022-10-16T15:40:12;23.20;;;16.80;;
60919;SDS011;59039;52.108;19.942;2022-10-16T15:42:37;20.40;;;15.10;;
60919;SDS011;59039;52.108;19.942;2022-10-16T15:45:03;22.20;;;15.10;;
60919;SDS011;59039;52.108;19.942;2022-10-16T15:47:28;20.10;;;15.60;;
60919;SDS011;59039;52.108;19.942;2022-10-16T15:49:54;24.90;;;14.70;;
60919;SDS011;59039;52.108;19.942;2022-10-16T15:52:19;23.50;;;15.70;;
60919;SDS011;59039;52.108;19.942;2022-10-16T15:54:44;21.20;;;15.90;;
60919;SDS011;59039;52.108;19.942;2022-10-16T15:57:09;24.30;;;16.60;;
60919;SDS011;59039;52.108;19.942;2022-10-16T15:59:34;26.50;;;18.10;;
60919;SDS011;59039;52.108;19.942;2022-10-16T16:02:00;24.50;;;17.30;;
60919;SDS011;59039;52.108;19.942;2022-10-16T16:04:25;29.20;;;18.30;;
60919;SDS011;59039;52.108;19.942;2022-10-16T16:06:50;29.20;;;18.80;;
60919;SDS011;59039;52.108;19.942;2022-10-16T16:09:15;24.80;;;17.70;;
60919;SDS011;59039;52.108;19.942;2022-10-16T16:11:41;29.60;;;20.40;;
60919;SDS011;59039;52.108;19.942;2022-10-16T16:14:06;35.90;;;21.30;;
60919;SDS011;59039;52.108;19.942;2022-10-16T16:16:32;31.30;;;20.80;;
60919;SDS011;59039;52.108;19.942;2022-10-16T16:18:58;30.90;;;19.20;;
60919;SDS011;59039;52.108;19.942;2022-10-16T16:21:23;31.60;;;20.00;;